createdAt,value
2023-02-04T03:59:11.660Z,0.00
2023-02-04T04:00:09.727Z,0.00
2023-02-04T04:01:11.642Z,0.00
2023-02-04T04:02:09.722Z,0.00
2023-02-04T04:03:11.703Z,0.00
2023-02-04T04:04:09.702Z,0.00
2023-02-04T04:05:11.640Z,0.00
2023-02-04T04:06:11.670Z,0.00
2023-02-04T04:07:11.641Z,0.00
2023-02-04T04:08:10.669Z,0.00
2023-02-04T04:09:11.638Z,0.00
2023-02-04T04:10:09.693Z,0.00
2023-02-04T04:11:11.158Z,0.00
2023-02-04T04:12:11.131Z,0.00
2023-02-04T04:13:11.135Z,0.00
2023-02-04T04:14:11.145Z,0.00
2023-02-04T04:15:11.180Z,0.00
2023-02-04T04:16:11.193Z,0.00
2023-02-04T04:17:11.133Z,0.00
2023-02-04T04:18:10.647Z,0.00
2023-02-04T04:19:09.611Z,0.00
2023-02-04T04:20:09.611Z,0.00
2023-02-04T04:21:09.600Z,0.00
2023-02-04T04:22:11.157Z,0.00
2023-02-04T04:23:09.583Z,0.00
2023-02-04T04:24:09.583Z,0.00
2023-02-04T04:25:11.153Z,0.00
2023-02-04T04:26:09.563Z,0.00
2023-02-04T04:27:09.567Z,0.00
2023-02-04T04:28:09.599Z,0.00
2023-02-04T04:29:09.589Z,0.00
2023-02-04T04:30:11.182Z,0.00
2023-02-04T04:31:11.274Z,0.00
2023-02-04T04:32:11.162Z,0.00
2023-02-04T04:33:11.175Z,0.00
2023-02-04T04:34:09.538Z,0.00
2023-02-04T04:35:11.147Z,0.00
2023-02-04T04:36:11.164Z,0.00
2023-02-04T04:37:09.512Z,0.00
2023-02-04T04:38:11.164Z,0.00
2023-02-04T04:39:11.151Z,0.00
2023-02-04T04:40:11.150Z,0.00
2023-02-04T04:41:11.159Z,0.00
2023-02-04T04:42:09.498Z,0.00
2023-02-04T04:43:11.173Z,0.00
2023-02-04T04:44:11.164Z,0.00
2023-02-04T04:45:11.170Z,0.00
2023-02-04T04:46:11.150Z,0.00
2023-02-04T04:47:11.176Z,0.00
2023-02-04T04:48:09.478Z,0.00
2023-02-04T04:49:09.471Z,0.00
2023-02-04T04:50:11.166Z,0.00
2023-02-04T04:51:09.444Z,0.00
2023-02-04T04:52:09.444Z,0.00
2023-02-04T04:53:09.434Z,0.00
2023-02-04T04:54:11.176Z,0.00
2023-02-04T04:55:11.189Z,0.00
2023-02-04T04:56:09.417Z,0.00
2023-02-04T04:57:09.416Z,0.00
2023-02-04T04:58:09.418Z,0.00
2023-02-04T04:59:11.176Z,0.00
2023-02-04T05:00:10.669Z,0.00
2023-02-04T05:01:11.208Z,0.00
2023-02-04T05:02:11.166Z,0.00
2023-02-04T05:03:11.175Z,0.00
2023-02-04T05:04:11.185Z,0.00
2023-02-04T05:05:11.265Z,0.00
2023-02-04T05:06:11.176Z,0.00
2023-02-04T05:07:11.170Z,0.00
2023-02-04T05:08:11.175Z,0.00
2023-02-04T05:09:11.199Z,0.00
2023-02-04T05:10:11.188Z,0.00
2023-02-04T05:11:11.200Z,0.00
2023-02-04T05:12:11.210Z,0.00
2023-02-04T05:13:11.199Z,0.00
2023-02-04T05:14:11.222Z,0.00
2023-02-04T05:15:11.174Z,0.00
2023-02-04T05:16:11.263Z,0.00
2023-02-04T05:17:11.208Z,0.00
2023-02-04T05:18:09.354Z,0.00
2023-02-04T05:19:09.344Z,0.00
2023-02-04T05:20:09.325Z,0.00
2023-02-04T05:21:11.203Z,0.00
2023-02-04T05:22:09.367Z,0.00
2023-02-04T05:23:09.315Z,0.00
2023-02-04T05:24:09.307Z,0.00
2023-02-04T05:25:09.314Z,0.00
2023-02-04T05:26:13.634Z,0.00
2023-02-04T05:27:09.319Z,0.00
2023-02-04T05:28:10.780Z,0.00
2023-02-04T05:29:10.662Z,0.00
2023-02-04T05:30:09.308Z,0.00
2023-02-04T05:31:11.379Z,0.00
2023-02-04T05:32:09.275Z,0.00
2023-02-04T05:33:11.255Z,0.00
2023-02-04T05:34:10.319Z,0.00
2023-02-04T05:35:09.273Z,0.00
2023-02-04T05:36:11.204Z,0.00
2023-02-04T05:37:09.257Z,0.00
2023-02-04T05:38:11.214Z,0.00
2023-02-04T05:39:10.744Z,0.00
2023-02-04T05:40:09.227Z,0.00
2023-02-04T05:41:11.212Z,0.00
2023-02-04T05:42:09.225Z,0.00
2023-02-04T05:43:11.226Z,0.00
2023-02-04T05:44:10.211Z,0.00
2023-02-04T05:45:10.711Z,0.00
2023-02-04T05:46:10.789Z,0.00
2023-02-04T05:47:10.712Z,0.00
2023-02-04T05:48:10.722Z,0.00
2023-02-04T05:49:10.203Z,0.00
2023-02-04T05:50:09.188Z,0.00
2023-02-04T05:51:10.727Z,0.00
2023-02-04T05:52:10.744Z,0.00
2023-02-04T05:53:10.189Z,0.00
2023-02-04T05:54:09.166Z,0.00
2023-02-04T05:55:09.171Z,0.00
2023-02-04T05:56:10.783Z,0.00
2023-02-04T05:57:09.222Z,0.00
2023-02-04T05:58:09.165Z,0.00
2023-02-04T05:59:09.160Z,0.00
2023-02-04T06:00:09.148Z,0.00
2023-02-04T06:01:10.741Z,0.00
2023-02-04T06:02:10.129Z,0.00
2023-02-04T06:03:10.806Z,0.00
2023-02-04T06:04:10.775Z,0.00
2023-02-04T06:05:10.740Z,0.00
2023-02-04T06:06:10.765Z,0.00
2023-02-04T06:07:10.752Z,0.00
2023-02-04T06:08:10.728Z,0.00
2023-02-04T06:09:10.850Z,0.00
2023-02-04T06:10:10.741Z,0.00
2023-02-04T06:11:10.755Z,0.00
2023-02-04T06:12:10.745Z,0.00
2023-02-04T06:13:10.764Z,0.00
2023-02-04T06:14:10.829Z,0.00
2023-02-04T06:15:10.761Z,0.00
2023-02-04T06:16:10.786Z,0.00
2023-02-04T06:17:10.739Z,0.00
2023-02-04T06:18:10.246Z,0.00
2023-02-04T06:19:10.748Z,0.00
2023-02-04T06:20:10.773Z,0.00
2023-02-04T06:21:09.084Z,0.00
2023-02-04T06:22:09.058Z,0.00
2023-02-04T06:23:09.076Z,0.00
2023-02-04T06:24:09.029Z,0.00
2023-02-04T06:25:10.755Z,0.00
2023-02-04T06:26:10.743Z,0.00
2023-02-04T06:27:09.058Z,0.00
2023-02-04T06:28:09.115Z,0.00
2023-02-04T06:29:09.030Z,0.00
2023-02-04T06:30:10.763Z,0.00
2023-02-04T06:31:09.195Z,0.00
2023-02-04T06:32:10.752Z,0.00
2023-02-04T06:33:08.993Z,0.00
2023-02-04T06:34:08.995Z,0.00
2023-02-04T06:35:10.779Z,0.00
2023-02-04T06:36:10.746Z,0.00
2023-02-04T06:37:10.761Z,4.00
2023-02-04T06:38:10.755Z,4.00
2023-02-04T06:39:10.799Z,0.00
2023-02-04T06:40:10.756Z,0.00
2023-02-04T06:41:10.744Z,4.00
2023-02-04T06:42:10.779Z,4.00
2023-02-04T06:43:09.954Z,4.00
2023-02-04T06:44:10.792Z,4.00
2023-02-04T06:45:10.755Z,8.00
2023-02-04T06:46:10.902Z,4.00
2023-02-04T06:47:10.769Z,8.00
2023-02-04T06:48:10.799Z,8.00
2023-02-04T06:49:10.758Z,8.00
2023-02-04T06:50:09.931Z,12.00
2023-02-04T06:51:08.917Z,12.00
2023-02-04T06:52:08.922Z,12.00
2023-02-04T06:53:10.764Z,16.00
2023-02-04T06:54:08.909Z,16.00
2023-02-04T06:55:08.916Z,20.00
2023-02-04T06:56:08.920Z,24.00
2023-02-04T06:57:10.774Z,28.00
2023-02-04T06:58:08.915Z,32.00
2023-02-04T06:59:08.885Z,32.00
2023-02-04T07:00:08.884Z,36.00
2023-02-04T07:01:10.831Z,40.00
2023-02-04T07:02:08.920Z,44.00
2023-02-04T07:03:08.884Z,52.00
2023-02-04T07:04:08.889Z,56.00
2023-02-04T07:05:08.848Z,64.00
2023-02-04T07:06:10.807Z,72.00
2023-02-04T07:07:08.882Z,80.00
2023-02-04T07:08:10.770Z,84.00
2023-02-04T07:09:10.790Z,92.00
2023-02-04T07:10:08.840Z,100.00
2023-02-04T07:12:08.835Z,112.00
2023-02-04T07:13:11.771Z,120.00
2023-02-04T07:14:08.828Z,128.00
2023-02-04T07:15:10.799Z,136.00
2023-02-04T07:16:10.402Z,144.00
2023-02-04T07:17:10.789Z,156.00
2023-02-04T07:18:10.780Z,164.00
2023-02-04T07:19:08.807Z,176.00
2023-02-04T07:20:09.800Z,188.00
2023-02-04T07:21:10.300Z,196.00
2023-02-04T07:22:08.905Z,208.00
2023-02-04T07:23:08.794Z,224.00
2023-02-04T07:24:08.769Z,232.00
2023-02-04T07:25:08.763Z,244.00
2023-02-04T07:26:10.310Z,256.00
2023-02-04T07:27:08.770Z,268.00
2023-02-04T07:28:08.862Z,280.00
2023-02-04T07:29:17.320Z,296.00
2023-02-04T07:30:08.749Z,312.00
2023-02-04T07:31:10.413Z,328.00
2023-02-04T07:32:08.773Z,348.00
2023-02-04T07:33:08.732Z,368.00
2023-02-04T07:34:08.728Z,392.00
2023-02-04T07:35:08.721Z,404.00
2023-02-04T07:36:10.344Z,416.00
2023-02-04T07:37:10.322Z,440.00
2023-02-04T07:38:10.319Z,464.00
2023-02-04T07:39:10.288Z,492.00
2023-02-04T07:40:10.297Z,508.00
2023-02-04T07:41:10.313Z,536.00
2023-02-04T07:42:10.303Z,556.00
2023-02-04T07:43:10.317Z,572.00
2023-02-04T07:44:10.329Z,588.00
2023-02-04T07:45:10.306Z,604.00
2023-02-04T07:46:10.409Z,616.00
2023-02-04T07:47:10.381Z,620.00
2023-02-04T07:48:10.306Z,624.00
2023-02-04T07:49:10.302Z,624.00
2023-02-04T07:50:10.358Z,628.00
2023-02-04T07:51:10.303Z,636.00
2023-02-04T07:52:10.298Z,640.00
2023-02-04T07:53:10.311Z,648.00
2023-02-04T07:54:10.317Z,652.00
2023-02-04T07:55:10.308Z,656.00
2023-02-04T07:56:08.641Z,668.00
2023-02-04T07:57:10.323Z,672.00
2023-02-04T07:58:08.621Z,676.00
2023-02-04T07:59:08.649Z,676.00
2023-02-04T08:00:08.601Z,680.00
2023-02-04T08:01:08.600Z,680.00
2023-02-04T08:02:10.349Z,672.00
2023-02-04T08:03:08.676Z,660.00
2023-02-04T08:04:10.315Z,652.00
2023-02-04T08:05:08.573Z,656.00
2023-02-04T08:06:08.591Z,676.00
2023-02-04T08:07:08.574Z,756.00
2023-02-04T08:08:10.335Z,832.00
2023-02-04T08:09:10.323Z,848.00
2023-02-04T08:10:10.332Z,888.00
2023-02-04T08:11:10.340Z,908.00
2023-02-04T08:12:10.323Z,940.00
2023-02-04T08:13:08.561Z,952.00
2023-02-04T08:14:10.345Z,996.00
2023-02-04T08:15:10.437Z,1012.00
2023-02-04T08:16:11.939Z,1112.00
2023-02-04T08:17:10.350Z,1296.00
2023-02-04T08:18:10.318Z,1452.00
2023-02-04T08:19:10.352Z,1476.00
2023-02-04T08:20:10.336Z,1620.00
2023-02-04T08:21:10.316Z,1732.00
2023-02-04T08:22:10.320Z,1816.00
2023-02-04T08:23:10.317Z,1912.00
2023-02-04T08:24:10.324Z,1988.00
2023-02-04T08:25:10.333Z,1996.00
2023-02-04T08:26:10.328Z,2020.00
2023-02-04T08:27:10.325Z,2104.00
2023-02-04T08:28:10.353Z,2184.00
2023-02-04T08:29:10.334Z,2180.00
2023-02-04T08:30:10.346Z,2172.00
2023-02-04T08:31:10.529Z,2128.00
2023-02-04T08:32:08.581Z,2108.00
2023-02-04T08:33:08.488Z,2044.00
2023-02-04T08:34:08.460Z,2048.00
2023-02-04T08:35:10.348Z,2100.00
2023-02-04T08:36:08.446Z,2124.00
2023-02-04T08:37:08.452Z,1952.00
2023-02-04T08:38:10.346Z,2144.00
2023-02-04T08:39:08.433Z,2148.00
2023-02-04T08:40:09.848Z,2192.00
2023-02-04T08:41:08.441Z,2104.00
2023-02-04T08:42:10.332Z,2216.00
2023-02-04T08:43:08.424Z,2248.00
2023-02-04T08:44:10.319Z,2188.00
2023-02-04T08:45:10.359Z,2092.00
2023-02-04T08:46:08.456Z,1968.00
2023-02-04T08:47:10.358Z,1720.00
2023-02-04T08:48:10.389Z,1192.00
2023-02-04T08:49:10.372Z,1152.00
2023-02-04T08:50:10.359Z,1136.00
2023-02-04T08:51:10.383Z,1140.00
2023-02-04T08:52:10.351Z,1160.00
2023-02-04T08:53:10.373Z,1180.00
2023-02-04T08:54:08.435Z,1208.00
2023-02-04T08:55:10.371Z,1232.00
2023-02-04T08:56:10.467Z,1260.00
2023-02-04T08:57:10.370Z,1288.00
2023-02-04T08:58:10.373Z,1320.00
2023-02-04T08:59:10.395Z,1344.00
2023-02-04T09:00:10.364Z,1360.00
2023-02-04T09:01:10.412Z,1368.00
2023-02-04T09:02:09.959Z,1372.00
2023-02-04T09:03:09.915Z,1372.00
2023-02-04T09:04:09.872Z,1384.00
2023-02-04T09:05:09.886Z,1404.00
2023-02-04T09:06:09.910Z,1416.00
2023-02-04T09:07:09.892Z,1432.00
2023-02-04T09:08:08.360Z,1444.00
2023-02-04T09:09:08.364Z,1472.00
2023-02-04T09:10:09.886Z,1500.00
2023-02-04T09:11:09.920Z,1540.00
2023-02-04T09:12:09.937Z,1548.00
2023-02-04T09:13:09.886Z,1576.00
2023-02-04T09:14:09.884Z,1596.00
2023-02-04T09:15:09.923Z,1648.00
2023-02-04T09:16:09.906Z,1908.00
2023-02-04T09:17:09.903Z,1732.00
2023-02-04T09:18:09.963Z,1812.00
2023-02-04T09:19:09.918Z,1820.00
2023-02-04T09:20:09.898Z,1948.00
2023-02-04T09:21:09.957Z,1832.00
2023-02-04T09:22:09.905Z,1768.00
2023-02-04T09:23:09.916Z,1692.00
2023-02-04T09:24:09.909Z,1644.00
2023-02-04T09:25:09.904Z,1580.00
2023-02-04T09:26:09.900Z,1560.00
2023-02-04T09:27:09.947Z,1524.00
2023-02-04T09:28:10.094Z,1552.00
2023-02-04T09:29:08.324Z,1644.00
2023-02-04T09:30:08.319Z,2204.00
2023-02-04T09:31:08.333Z,1916.00
2023-02-04T09:32:08.334Z,1728.00
2023-02-04T09:33:09.933Z,2616.00
2023-02-04T09:34:09.923Z,2536.00
2023-02-04T09:35:08.322Z,2096.00
2023-02-04T09:36:09.935Z,1956.00
2023-02-04T09:37:08.303Z,2676.00
2023-02-04T09:38:09.970Z,3116.00
2023-02-04T09:39:08.299Z,3292.00
2023-02-04T09:40:08.282Z,2892.00
2023-02-04T09:41:09.931Z,3632.00
2023-02-04T09:42:08.304Z,3708.00
2023-02-04T09:43:09.935Z,3780.00
2023-02-04T09:44:09.917Z,3668.00
2023-02-04T09:45:09.955Z,2600.00
2023-02-04T09:46:09.946Z,2388.00
2023-02-04T09:47:09.933Z,3032.00
2023-02-04T09:48:10.349Z,2756.00
2023-02-04T09:49:09.933Z,3500.00
2023-02-04T09:50:09.951Z,3632.00
2023-02-04T09:51:09.965Z,3984.00
2023-02-04T09:52:09.956Z,3856.00
2023-02-04T09:53:10.943Z,3264.00
2023-02-04T09:54:09.987Z,2808.00
2023-02-04T09:55:09.954Z,3404.00
2023-02-04T09:56:09.924Z,4032.00
2023-02-04T09:57:08.232Z,2636.00
2023-02-04T09:58:09.956Z,2676.00
2023-02-04T09:59:08.233Z,2608.00
2023-02-04T10:00:09.886Z,2408.00
2023-02-04T10:01:09.973Z,2388.00
2023-02-04T10:02:08.204Z,2320.00
2023-02-04T10:13:31.985Z,2468.00
2023-02-04T10:14:30.096Z,3580.00
2023-02-04T10:15:30.119Z,2660.00
2023-02-04T10:16:32.027Z,2564.00
2023-02-04T10:17:31.959Z,2624.00
2023-02-04T10:18:31.947Z,2740.00
2023-02-04T10:19:30.079Z,2932.00
2023-02-04T10:20:32.233Z,4164.00
2023-02-04T10:21:30.082Z,4120.00
2023-02-04T10:22:31.934Z,4196.00
2023-02-04T10:23:31.962Z,4352.00
2023-02-04T10:24:31.936Z,4116.00
2023-02-04T10:25:31.949Z,3620.00
2023-02-04T10:26:31.967Z,3452.00
2023-02-04T10:27:31.942Z,3424.00
2023-02-04T10:28:31.972Z,3876.00
2023-02-04T10:29:31.988Z,3904.00
2023-02-04T10:30:32.330Z,3744.00
2023-02-04T10:31:32.125Z,3892.00
2023-02-04T10:32:31.970Z,4068.00
2023-02-04T10:33:31.978Z,4176.00
2023-02-04T10:34:31.951Z,4084.00
2023-02-04T10:35:31.974Z,3796.00
2023-02-04T10:36:31.982Z,3600.00
2023-02-04T10:37:31.965Z,3412.00
2023-02-04T10:38:31.955Z,3364.00
2023-02-04T10:39:32.012Z,3416.00
2023-02-04T10:40:31.538Z,3404.00
2023-02-04T10:41:30.040Z,3292.00
2023-02-04T10:42:30.020Z,3392.00
2023-02-04T10:43:30.042Z,3392.00
2023-02-04T10:44:32.000Z,3460.00
2023-02-04T10:45:31.986Z,3444.00
2023-02-04T10:46:30.056Z,3560.00
2023-02-04T10:47:30.030Z,3580.00
2023-02-04T10:48:30.127Z,3644.00
2023-02-04T10:49:32.023Z,3772.00
2023-02-04T10:50:32.315Z,3800.00
2023-02-04T10:51:30.017Z,3776.00
2023-02-04T10:52:31.983Z,3728.00
2023-02-04T10:53:30.061Z,3636.00
2023-02-04T10:54:31.984Z,3668.00
2023-02-04T10:55:30.040Z,3624.00
2023-02-04T10:56:31.982Z,3544.00
2023-02-04T10:57:31.981Z,3488.00
2023-02-04T10:58:29.996Z,3416.00
2023-02-04T10:59:31.974Z,3420.00
2023-02-04T11:00:31.857Z,3472.00
2023-02-04T11:01:31.109Z,3536.00
2023-02-04T11:02:31.507Z,3604.00
2023-02-04T11:03:30.053Z,3700.00
2023-02-04T11:04:29.994Z,3784.00
2023-02-04T11:05:31.514Z,3864.00
2023-02-04T11:06:31.496Z,3944.00
2023-02-04T11:07:29.988Z,4060.00
2023-02-04T11:08:29.981Z,4176.00
2023-02-04T11:09:29.975Z,4280.00
2023-02-04T11:10:31.832Z,4348.00
2023-02-04T11:11:29.979Z,4212.00
2023-02-04T11:12:31.508Z,4144.00
2023-02-04T11:13:30.077Z,4088.00
2023-02-04T11:14:30.009Z,3992.00
2023-02-04T11:15:31.541Z,3908.00
2023-02-04T11:16:29.982Z,3808.00
2023-02-04T11:17:31.530Z,3720.00
2023-02-04T11:18:31.525Z,3744.00
2023-02-04T11:19:31.499Z,3840.00
2023-02-04T11:20:31.809Z,3960.00
2023-02-04T11:21:31.497Z,4084.00
2023-02-04T11:22:31.516Z,4140.00
2023-02-04T11:23:31.507Z,4028.00
2023-02-04T11:24:31.505Z,4004.00
2023-02-04T11:25:31.889Z,3968.00
2023-02-04T11:26:31.507Z,3992.00
2023-02-04T11:27:31.516Z,3996.00
2023-02-04T11:28:31.548Z,3980.00
2023-02-04T11:29:31.518Z,3960.00
2023-02-04T11:30:31.609Z,3884.00
2023-02-04T11:31:31.651Z,3724.00
2023-02-04T11:32:31.571Z,3532.00
2023-02-04T11:33:31.519Z,3344.00
2023-02-04T11:34:31.529Z,3256.00
2023-02-04T11:35:31.936Z,3324.00
2023-02-04T11:36:31.029Z,3504.00
2023-02-04T11:37:29.949Z,3752.00
2023-02-04T11:38:29.967Z,3964.00
2023-02-04T11:39:29.935Z,4160.00
2023-02-04T11:40:31.542Z,4396.00
2023-02-04T11:41:29.934Z,4548.00
2023-02-04T11:42:29.946Z,4664.00
2023-02-04T11:43:29.928Z,4796.00
2023-02-04T11:44:29.950Z,4880.00
2023-02-04T11:45:31.833Z,4852.00
2023-02-04T11:46:30.011Z,4792.00
2023-02-04T11:47:29.931Z,4748.00
2023-02-04T11:48:29.915Z,4664.00
2023-02-04T11:49:31.529Z,4680.00
2023-02-04T11:50:31.540Z,4664.00
2023-02-04T11:51:31.528Z,4688.00
2023-02-04T11:52:31.528Z,4704.00
2023-02-04T11:53:31.551Z,4676.00
2023-02-04T11:54:31.523Z,4564.00
2023-02-04T11:55:31.896Z,4516.00
2023-02-04T11:56:31.546Z,4600.00
2023-02-04T11:57:31.559Z,4668.00
2023-02-04T11:58:31.592Z,4732.00
2023-02-04T11:59:31.538Z,4700.00
2023-02-04T12:00:31.601Z,4764.00
2023-02-04T12:01:31.544Z,5068.00
2023-02-04T12:02:31.583Z,5028.00
2023-02-04T12:03:31.584Z,4948.00
2023-02-04T12:04:31.556Z,5000.00
2023-02-04T12:05:31.883Z,5356.00
2023-02-04T12:06:31.536Z,5648.00
2023-02-04T12:07:32.496Z,5764.00
2023-02-04T12:08:31.571Z,5824.00
2023-02-04T12:09:31.553Z,5992.00
2023-02-04T12:10:31.558Z,6316.00
2023-02-04T12:11:31.545Z,6612.00
2023-02-04T12:12:31.551Z,6412.00
2023-02-04T12:13:31.569Z,6756.00
2023-02-04T12:14:29.889Z,7080.00
2023-02-04T12:15:29.973Z,6624.00
2023-02-04T12:16:31.565Z,7136.00
2023-02-04T12:17:29.898Z,5880.00
2023-02-04T12:18:29.932Z,5184.00
2023-02-04T12:19:29.932Z,5288.00
2023-02-04T12:20:31.064Z,5444.00
2023-02-04T12:21:29.912Z,6096.00
2023-02-04T12:22:31.617Z,6440.00
2023-02-04T12:23:29.900Z,6388.00
2023-02-04T12:24:31.565Z,6404.00
2023-02-04T12:25:31.294Z,6964.00
2023-02-04T12:26:29.896Z,6980.00
2023-02-04T12:27:31.581Z,6964.00
2023-02-04T12:28:29.882Z,7184.00
2023-02-04T12:29:31.585Z,7308.00
2023-02-04T12:30:30.893Z,7124.00
2023-02-04T12:31:31.691Z,8304.00
2023-02-04T12:32:29.901Z,7472.00
2023-02-04T12:33:31.590Z,7460.00
2023-02-04T12:34:31.564Z,7420.00
2023-02-04T12:35:31.884Z,8016.00
2023-02-04T12:36:31.582Z,9368.00
2023-02-04T12:37:31.576Z,8308.00
2023-02-04T12:38:31.616Z,7700.00
2023-02-04T12:39:31.578Z,6500.00
2023-02-04T12:40:31.572Z,6884.00
2023-02-04T12:41:29.873Z,7544.00
2023-02-04T12:42:31.576Z,7932.00
2023-02-04T12:43:31.610Z,8028.00
2023-02-04T12:44:31.590Z,7632.00
2023-02-04T12:45:31.304Z,8712.00
2023-02-04T12:46:29.971Z,8440.00
2023-02-04T12:47:31.655Z,9208.00
2023-02-04T12:48:30.975Z,10308.00
2023-02-04T12:49:31.093Z,11008.00
2023-02-04T12:50:30.929Z,10808.00
2023-02-04T12:51:30.897Z,10780.00
2023-02-04T12:52:31.610Z,12040.00
2023-02-04T12:53:31.597Z,9696.00
2023-02-04T12:54:31.120Z,9144.00
2023-02-04T12:55:31.976Z,7660.00
2023-02-04T12:56:31.616Z,8704.00
2023-02-04T12:57:31.594Z,6160.00
2023-02-04T12:58:31.600Z,7508.00
2023-02-04T12:59:31.659Z,7936.00
2023-02-04T13:00:31.679Z,9240.00
2023-02-04T13:01:31.600Z,10396.00
2023-02-04T13:02:31.586Z,10556.00
2023-02-04T13:03:31.607Z,10288.00
2023-02-04T13:04:30.913Z,10900.00
2023-02-04T13:05:31.938Z,12092.00
2023-02-04T13:06:31.613Z,12500.00
2023-02-04T13:07:31.596Z,13536.00
2023-02-04T13:08:31.620Z,18368.00
2023-02-04T13:09:31.633Z,15960.00
2023-02-04T13:10:31.623Z,17440.00
2023-02-04T13:11:31.618Z,15152.00
2023-02-04T13:12:31.598Z,15560.00
2023-02-04T13:13:31.604Z,15032.00
2023-02-04T13:14:30.968Z,13804.00
2023-02-04T13:15:31.947Z,16896.00
2023-02-04T13:16:29.954Z,19840.00
2023-02-04T13:17:29.932Z,19552.00
2023-02-04T13:18:31.168Z,19520.00
2023-02-04T13:19:29.953Z,21632.00
2023-02-04T13:20:31.628Z,20576.00
2023-02-04T13:21:31.155Z,20672.00
2023-02-04T13:22:29.946Z,19584.00
2023-02-04T13:23:31.611Z,20800.00
2023-02-04T13:24:31.643Z,13044.00
2023-02-04T13:25:32.048Z,9156.00
2023-02-04T13:26:31.619Z,12340.00
2023-02-04T13:27:31.975Z,10912.00
2023-02-04T13:28:31.638Z,10188.00
2023-02-04T13:29:31.633Z,13800.00
2023-02-04T13:30:31.669Z,9880.00
2023-02-04T13:31:31.658Z,12252.00
2023-02-04T13:32:31.632Z,11368.00
2023-02-04T13:33:31.625Z,13656.00
2023-02-04T13:34:31.632Z,14296.00
2023-02-04T13:35:31.955Z,13576.00
2023-02-04T13:36:31.631Z,13320.00
2023-02-04T13:37:31.664Z,11472.00
2023-02-04T13:38:31.636Z,11676.00
2023-02-04T13:39:31.631Z,11492.00
2023-02-04T13:40:31.679Z,9720.00
2023-02-04T13:41:31.669Z,11228.00
2023-02-04T13:42:31.654Z,7904.00
2023-02-04T13:43:32.646Z,8596.00
2023-02-04T13:44:31.675Z,9004.00
2023-02-04T13:45:31.671Z,10220.00
2023-02-04T13:46:29.958Z,6444.00
2023-02-04T13:47:32.675Z,5816.00
2023-02-04T13:48:29.966Z,6320.00
2023-02-04T13:49:31.671Z,7044.00
2023-02-04T13:50:31.625Z,6532.00
2023-02-04T13:51:29.956Z,7096.00
2023-02-04T13:52:29.997Z,6940.00
2023-02-04T13:53:29.971Z,8848.00
2023-02-04T13:54:29.981Z,9748.00
2023-02-04T13:55:30.089Z,12716.00
2023-02-04T13:56:31.727Z,15780.00
2023-02-04T13:57:31.187Z,24000.00
2023-02-04T13:58:29.954Z,24928.00
2023-02-04T13:59:29.964Z,19776.00
2023-02-04T14:00:32.209Z,23968.00
2023-02-04T14:01:31.676Z,18560.00
2023-02-04T14:02:30.007Z,21728.00
2023-02-04T14:03:31.685Z,27456.00
2023-02-04T14:04:29.971Z,25696.00
2023-02-04T14:05:31.670Z,20192.00
2023-02-04T14:06:31.679Z,13620.00
2023-02-04T14:07:30.984Z,30464.00
2023-02-04T14:08:31.676Z,27232.00
2023-02-04T14:09:31.669Z,21824.00
2023-02-04T14:10:31.996Z,22080.00
2023-02-04T14:11:31.705Z,17664.00
2023-02-04T14:12:31.686Z,23392.00
2023-02-04T14:13:31.677Z,22176.00
2023-02-04T14:14:31.715Z,21056.00
2023-02-04T14:15:31.686Z,17440.00
2023-02-04T14:16:31.734Z,20800.00
2023-02-04T14:17:30.975Z,25568.00
2023-02-04T14:18:29.976Z,14348.00
2023-02-04T14:19:31.724Z,16156.00
2023-02-04T14:20:32.101Z,11712.00
2023-02-04T14:21:31.710Z,8204.00
2023-02-04T14:22:31.698Z,9968.00
2023-02-04T14:23:31.698Z,9136.00
2023-02-04T14:24:29.977Z,8420.00
2023-02-04T14:25:31.688Z,6124.00
2023-02-04T14:26:31.717Z,7396.00
2023-02-04T14:27:31.694Z,7140.00
2023-02-04T14:28:31.725Z,5776.00
2023-02-04T14:29:31.721Z,5300.00
2023-02-04T14:30:32.289Z,7064.00
2023-02-04T14:31:31.775Z,6492.00
2023-02-04T14:32:31.702Z,5516.00
2023-02-04T14:33:31.724Z,6040.00
2023-02-04T14:34:29.979Z,6320.00
2023-02-04T14:35:31.714Z,7420.00
2023-02-04T14:36:31.738Z,6444.00
2023-02-04T14:37:29.976Z,5820.00
2023-02-04T14:38:31.708Z,7780.00
2023-02-04T14:39:31.712Z,10060.00
2023-02-04T14:40:32.111Z,14140.00
2023-02-04T14:41:31.723Z,13892.00
2023-02-04T14:42:31.749Z,8784.00
2023-02-04T14:43:31.705Z,6068.00
2023-02-04T14:44:31.750Z,4752.00
2023-02-04T14:45:31.710Z,4056.00
2023-02-04T14:46:31.702Z,3644.00
2023-02-04T14:47:31.712Z,3212.00
2023-02-04T14:48:29.983Z,3044.00
2023-02-04T14:49:31.225Z,2924.00
2023-02-04T14:50:31.816Z,2888.00
2023-02-04T14:51:29.972Z,2892.00
2023-02-04T14:52:29.994Z,2988.00
2023-02-04T14:53:31.723Z,3076.00
2023-02-04T14:54:29.974Z,3216.00
2023-02-04T14:55:29.973Z,3356.00
2023-02-04T14:56:31.234Z,3432.00
2023-02-04T14:57:29.958Z,3428.00
2023-02-04T14:58:31.745Z,3288.00
2023-02-04T14:59:31.721Z,3064.00
2023-02-04T15:00:32.092Z,2760.00
2023-02-04T15:01:31.884Z,2436.00
2023-02-04T15:02:31.797Z,2180.00
2023-02-04T15:03:31.735Z,2036.00
2023-02-04T15:04:31.719Z,2012.00
2023-02-04T15:05:31.795Z,1992.00
2023-02-04T15:06:31.768Z,1936.00
2023-02-04T15:07:31.729Z,1808.00
2023-02-04T15:08:31.743Z,1672.00
2023-02-04T15:09:31.745Z,1572.00
2023-02-04T15:10:32.182Z,1520.00
2023-02-04T15:11:31.810Z,1512.00
2023-02-04T15:12:31.758Z,1500.00
2023-02-04T15:13:31.757Z,1444.00
2023-02-04T15:14:31.759Z,1348.00
2023-02-04T15:15:31.745Z,1236.00
2023-02-04T15:16:31.823Z,1164.00
2023-02-04T15:17:31.764Z,1116.00
2023-02-04T15:18:31.740Z,1072.00
2023-02-04T15:19:31.743Z,1036.00
2023-02-04T15:20:32.188Z,992.00
2023-02-04T15:21:31.777Z,968.00
2023-02-04T15:22:31.043Z,960.00
2023-02-04T15:23:31.751Z,960.00
2023-02-04T15:24:31.751Z,936.00
2023-02-04T15:25:31.761Z,908.00
2023-02-04T15:26:31.756Z,868.00
2023-02-04T15:27:31.745Z,832.00
2023-02-04T15:28:29.932Z,792.00
2023-02-04T15:29:31.745Z,760.00
2023-02-04T15:30:31.687Z,732.00
2023-02-04T15:31:31.072Z,708.00
2023-02-04T15:32:31.775Z,692.00
2023-02-04T15:33:30.914Z,668.00
2023-02-04T15:34:29.894Z,652.00
2023-02-04T15:35:31.766Z,636.00
2023-02-04T15:36:29.884Z,632.00
2023-02-04T15:37:31.766Z,632.00
2023-02-04T15:38:29.905Z,636.00
2023-02-04T15:39:31.770Z,640.00
2023-02-04T15:40:30.040Z,636.00
2023-02-04T15:41:31.753Z,632.00
2023-02-04T15:42:31.790Z,632.00
2023-02-04T15:43:31.783Z,644.00
2023-02-04T15:44:31.805Z,668.00
2023-02-04T15:45:31.765Z,708.00
2023-02-04T15:46:31.846Z,756.00
2023-02-04T15:47:31.748Z,792.00
2023-02-04T15:48:31.784Z,804.00
2023-02-04T15:49:31.806Z,804.00
2023-02-04T15:50:32.148Z,804.00
2023-02-04T15:51:31.819Z,808.00
2023-02-04T15:52:31.757Z,800.00
2023-02-04T15:53:31.784Z,792.00
2023-02-04T15:54:29.851Z,780.00
2023-02-04T15:55:31.781Z,760.00
2023-02-04T15:56:30.834Z,728.00
2023-02-04T15:57:29.821Z,676.00
2023-02-04T15:58:31.789Z,620.00
2023-02-04T15:59:30.843Z,560.00
2023-02-04T16:00:32.188Z,508.00
2023-02-04T16:12:42.620Z,184.00
2023-02-04T16:13:42.613Z,176.00
2023-02-04T16:14:42.573Z,164.00
2023-02-04T16:15:42.628Z,152.00
2023-02-04T16:16:42.571Z,140.00
2023-02-04T16:17:42.579Z,124.00
2023-02-04T16:18:42.598Z,112.00
2023-02-04T16:19:42.581Z,104.00
2023-02-04T16:20:42.609Z,92.00
2023-02-04T16:21:42.582Z,84.00
2023-02-04T16:22:42.591Z,76.00
2023-02-04T16:23:43.590Z,68.00
2023-02-04T16:24:42.606Z,60.00
2023-02-04T16:25:42.617Z,56.00
2023-02-04T16:26:40.686Z,44.00
2023-02-04T16:27:40.733Z,44.00
2023-02-04T16:28:40.690Z,40.00
2023-02-04T16:29:42.607Z,32.00
2023-02-04T16:30:40.701Z,32.00
2023-02-04T16:31:40.740Z,28.00
2023-02-04T16:32:40.670Z,24.00
2023-02-04T16:33:42.116Z,24.00
2023-02-04T16:34:40.648Z,16.00
2023-02-04T16:35:41.670Z,16.00
2023-02-04T16:36:42.633Z,16.00
2023-02-04T16:37:41.642Z,12.00
2023-02-04T16:38:40.632Z,8.00
2023-02-04T16:39:42.588Z,8.00
2023-02-04T16:40:40.635Z,8.00
2023-02-04T16:41:42.609Z,8.00
2023-02-04T16:42:40.622Z,4.00
2023-02-04T16:43:43.124Z,4.00
2023-02-04T16:44:40.631Z,4.00
2023-02-04T16:45:40.604Z,4.00
2023-02-04T16:46:40.664Z,0.00